sensor_id;sensor_type;location;lat;lon;timestamp;pressure;altitude;pressure_sealevel;temperature;humidity
74125;BME280;62475;52.192;5.396;2022-08-16T00:00:12;100641.53;;;19.84;84.38
74125;BME280;62475;52.192;5.396;2022-08-16T00:02:38;100649.25;;;19.75;84.74
74125;BME280;62475;52.192;5.396;2022-08-16T00:05:06;100648.91;;;19.76;84.36
74125;BME280;62475;52.192;5.396;2022-08-16T00:07:32;100653.28;;;19.62;84.62
74125;BME280;62475;52.192;5.396;2022-08-16T00:09:58;100651.69;;;19.61;84.37
74125;BME280;62475;52.192;5.396;2022-08-16T00:12:26;100645.75;;;19.62;84.77
74125;BME280;62475;52.192;5.396;2022-08-16T00:14:52;100648.44;;;19.59;85.61
74125;BME280;62475;52.192;5.396;2022-08-16T00:17:18;100665.06;;;19.55;85.61
74125;BME280;62475;52.192;5.396;2022-08-16T00:19:43;100656.72;;;19.55;85.33
74125;BME280;62475;52.192;5.396;2022-08-16T00:22:10;100659.88;;;19.54;86.00
74125;BME280;62475;52.192;5.396;2022-08-16T00:24:35;100662.16;;;19.36;86.24
74125;BME280;62475;52.192;5.396;2022-08-16T00:27:02;100655.44;;;19.37;84.83
74125;BME280;62475;52.192;5.396;2022-08-16T00:29:29;100670.53;;;19.36;86.49
74125;BME280;62475;52.192;5.396;2022-08-16T00:31:55;100652.81;;;19.29;86.30
74125;BME280;62475;52.192;5.396;2022-08-16T00:34:22;100675.28;;;19.36;86.39
74125;BME280;62475;52.192;5.396;2022-08-16T00:36:47;100672.50;;;19.36;85.05
74125;BME280;62475;52.192;5.396;2022-08-16T00:39:15;100672.63;;;19.27;85.06
74125;BME280;62475;52.192;5.396;2022-08-16T00:41:42;100680.88;;;19.23;86.28
74125;BME280;62475;52.192;5.396;2022-08-16T00:44:08;100674.88;;;19.21;85.22
74125;BME280;62475;52.192;5.396;2022-08-16T00:46:50;100678.34;;;19.18;85.31
74125;BME280;62475;52.192;5.396;2022-08-16T00:49:18;100666.13;;;19.07;86.90
74125;BME280;62475;52.192;5.396;2022-08-16T00:51:43;100675.38;;;19.11;87.18
74125;BME280;62475;52.192;5.396;2022-08-16T00:54:09;100673.31;;;19.08;86.61
74125;BME280;62475;52.192;5.396;2022-08-16T00:56:38;100679.97;;;19.04;86.57
74125;BME280;62475;52.192;5.396;2022-08-16T00:59:06;100675.06;;;19.01;85.67
74125;BME280;62475;52.192;5.396;2022-08-16T01:01:32;100676.59;;;18.98;85.68
74125;BME280;62475;52.192;5.396;2022-08-16T01:03:59;100674.19;;;18.97;86.21
74125;BME280;62475;52.192;5.396;2022-08-16T01:06:26;100673.25;;;18.93;86.65
74125;BME280;62475;52.192;5.396;2022-08-16T01:08:54;100673.16;;;18.89;87.25
74125;BME280;62475;52.192;5.396;2022-08-16T01:11:24;100670.94;;;18.95;87.71
74125;BME280;62475;52.192;5.396;2022-08-16T01:13:52;100660.31;;;18.85;87.21
74125;BME280;62475;52.192;5.396;2022-08-16T01:16:22;100669.44;;;18.85;86.15
74125;BME280;62475;52.192;5.396;2022-08-16T01:18:53;100674.59;;;18.83;87.12
74125;BME280;62475;52.192;5.396;2022-08-16T01:21:51;100673.66;;;18.79;87.31
74125;BME280;62475;52.192;5.396;2022-08-16T01:24:39;100670.41;;;18.77;87.31
74125;BME280;62475;52.192;5.396;2022-08-16T01:27:13;100671.59;;;18.76;87.02
74125;BME280;62475;52.192;5.396;2022-08-16T01:29:59;100675.06;;;18.73;87.99
74125;BME280;62475;52.192;5.396;2022-08-16T01:32:28;100669.13;;;18.75;88.40
74125;BME280;62475;52.192;5.396;2022-08-16T01:34:54;100669.50;;;18.73;87.31
74125;BME280;62475;52.192;5.396;2022-08-16T01:37:20;100669.03;;;18.71;87.97
74125;BME280;62475;52.192;5.396;2022-08-16T01:39:45;100662.22;;;18.69;88.78
74125;BME280;62475;52.192;5.396;2022-08-16T01:42:12;100663.28;;;18.64;88.91
74125;BME280;62475;52.192;5.396;2022-08-16T01:44:38;100670.56;;;18.69;88.39
74125;BME280;62475;52.192;5.396;2022-08-16T01:47:04;100661.53;;;18.60;88.35
74125;BME280;62475;52.192;5.396;2022-08-16T01:49:35;100666.25;;;18.71;88.38
74125;BME280;62475;52.192;5.396;2022-08-16T01:52:11;100662.09;;;18.65;89.27
74125;BME280;62475;52.192;5.396;2022-08-16T01:54:37;100670.00;;;18.63;89.26
74125;BME280;62475;52.192;5.396;2022-08-16T01:57:04;100668.97;;;18.56;89.26
74125;BME280;62475;52.192;5.396;2022-08-16T01:59:30;100665.28;;;18.52;89.67
74125;BME280;62475;52.192;5.396;2022-08-16T02:01:55;100672.66;;;18.60;88.68
74125;BME280;62475;52.192;5.396;2022-08-16T02:04:22;100670.91;;;18.67;88.17
74125;BME280;62475;52.192;5.396;2022-08-16T02:06:48;100651.75;;;18.78;86.90
74125;BME280;62475;52.192;5.396;2022-08-16T02:09:15;100661.88;;;18.98;86.06
74125;BME280;62475;52.192;5.396;2022-08-16T02:11:56;100650.78;;;18.86;86.31
74125;BME280;62475;52.192;5.396;2022-08-16T02:14:27;100668.25;;;18.98;86.20
74125;BME280;62475;52.192;5.396;2022-08-16T02:16:55;100665.22;;;19.03;85.74
74125;BME280;62475;52.192;5.396;2022-08-16T02:19:21;100671.25;;;19.05;85.00
74125;BME280;62475;52.192;5.396;2022-08-16T02:21:52;100673.56;;;19.03;84.56
74125;BME280;62475;52.192;5.396;2022-08-16T02:24:18;100669.19;;;19.02;84.78
74125;BME280;62475;52.192;5.396;2022-08-16T02:26:44;100673.56;;;19.03;84.96
74125;BME280;62475;52.192;5.396;2022-08-16T02:29:09;100674.97;;;18.97;85.24
74125;BME280;62475;52.192;5.396;2022-08-16T02:31:34;100675.78;;;18.98;85.99
74125;BME280;62475;52.192;5.396;2022-08-16T02:34:01;100662.84;;;18.90;85.30
74125;BME280;62475;52.192;5.396;2022-08-16T02:36:26;100673.38;;;18.96;85.44
74125;BME280;62475;52.192;5.396;2022-08-16T02:38:51;100670.00;;;18.91;85.37
74125;BME280;62475;52.192;5.396;2022-08-16T02:41:17;100672.69;;;18.87;85.41
74125;BME280;62475;52.192;5.396;2022-08-16T02:43:42;100672.94;;;18.82;85.56
74125;BME280;62475;52.192;5.396;2022-08-16T02:46:08;100675.63;;;18.79;85.25
74125;BME280;62475;52.192;5.396;2022-08-16T02:48:34;100666.56;;;18.82;85.40
74125;BME280;62475;52.192;5.396;2022-08-16T02:51:04;100668.44;;;18.78;86.03
74125;BME280;62475;52.192;5.396;2022-08-16T02:53:31;100672.28;;;18.73;86.05
74125;BME280;62475;52.192;5.396;2022-08-16T02:55:57;100673.34;;;18.69;86.84
74125;BME280;62475;52.192;5.396;2022-08-16T02:58:23;100675.31;;;18.68;85.16
74125;BME280;62475;52.192;5.396;2022-08-16T03:00:49;100680.31;;;18.63;86.15
74125;BME280;62475;52.192;5.396;2022-08-16T03:03:14;100677.75;;;18.58;86.39
74125;BME280;62475;52.192;5.396;2022-08-16T03:05:40;100670.47;;;18.53;86.38
74125;BME280;62475;52.192;5.396;2022-08-16T03:08:06;100668.84;;;18.52;86.94
74125;BME280;62475;52.192;5.396;2022-08-16T03:10:31;100666.88;;;18.53;87.23
74125;BME280;62475;52.192;5.396;2022-08-16T03:12:57;100662.63;;;18.43;87.35
74125;BME280;62475;52.192;5.396;2022-08-16T03:15:22;100668.97;;;18.44;87.85
74125;BME280;62475;52.192;5.396;2022-08-16T03:17:48;100667.84;;;18.45;87.89
74125;BME280;62475;52.192;5.396;2022-08-16T03:20:14;100667.13;;;18.36;88.54
74125;BME280;62475;52.192;5.396;2022-08-16T03:22:40;100662.63;;;18.31;88.69
74125;BME280;62475;52.192;5.396;2022-08-16T03:25:09;100667.84;;;18.33;88.51
74125;BME280;62475;52.192;5.396;2022-08-16T03:27:36;100653.81;;;18.29;88.52
74125;BME280;62475;52.192;5.396;2022-08-16T03:30:10;100656.84;;;18.24;88.80
74125;BME280;62475;52.192;5.396;2022-08-16T03:32:36;100656.38;;;18.22;88.32
74125;BME280;62475;52.192;5.396;2022-08-16T03:35:03;100652.66;;;18.18;88.41
74125;BME280;62475;52.192;5.396;2022-08-16T03:37:29;100658.34;;;18.22;88.88
74125;BME280;62475;52.192;5.396;2022-08-16T03:39:54;100655.44;;;18.18;89.06
74125;BME280;62475;52.192;5.396;2022-08-16T03:42:20;100654.19;;;18.16;88.16
74125;BME280;62475;52.192;5.396;2022-08-16T03:44:45;100661.34;;;18.17;87.58
74125;BME280;62475;52.192;5.396;2022-08-16T03:47:10;100657.41;;;18.05;88.74
74125;BME280;62475;52.192;5.396;2022-08-16T03:49:36;100682.41;;;18.17;87.56
74125;BME280;62475;52.192;5.396;2022-08-16T03:52:02;100668.75;;;18.12;88.02
74125;BME280;62475;52.192;5.396;2022-08-16T03:54:27;100659.84;;;18.07;87.85
74125;BME280;62475;52.192;5.396;2022-08-16T03:56:53;100667.03;;;18.08;88.75
74125;BME280;62475;52.192;5.396;2022-08-16T03:59:18;100678.75;;;18.13;88.04
74125;BME280;62475;52.192;5.396;2022-08-16T04:01:43;100673.75;;;18.07;87.85
74125;BME280;62475;52.192;5.396;2022-08-16T04:04:09;100667.28;;;18.03;88.01
74125;BME280;62475;52.192;5.396;2022-08-16T04:06:34;100681.63;;;18.17;87.22
74125;BME280;62475;52.192;5.396;2022-08-16T04:08:59;100680.81;;;18.17;87.93
74125;BME280;62475;52.192;5.396;2022-08-16T04:11:25;100683.47;;;18.13;87.98
74125;BME280;62475;52.192;5.396;2022-08-16T04:13:50;100683.13;;;18.02;89.22
74125;BME280;62475;52.192;5.396;2022-08-16T04:16:15;100675.03;;;17.97;88.04
74125;BME280;62475;52.192;5.396;2022-08-16T04:18:42;100681.88;;;18.00;88.34
74125;BME280;62475;52.192;5.396;2022-08-16T04:21:07;100688.00;;;18.05;88.00
74125;BME280;62475;52.192;5.396;2022-08-16T04:23:33;100676.75;;;18.02;88.43
74125;BME280;62475;52.192;5.396;2022-08-16T04:25:59;100687.63;;;18.07;88.68
74125;BME280;62475;52.192;5.396;2022-08-16T04:28:24;100676.75;;;18.02;88.50
74125;BME280;62475;52.192;5.396;2022-08-16T04:30:50;100673.75;;;18.07;88.45
74125;BME280;62475;52.192;5.396;2022-08-16T04:33:16;100684.06;;;18.19;87.92
74125;BME280;62475;52.192;5.396;2022-08-16T04:35:41;100675.94;;;18.26;87.88
74125;BME280;62475;52.192;5.396;2022-08-16T04:38:07;100689.84;;;18.26;87.86
74125;BME280;62475;52.192;5.396;2022-08-16T04:40:32;100699.44;;;18.28;88.85
74125;BME280;62475;52.192;5.396;2022-08-16T04:42:58;100700.28;;;18.29;88.25
74125;BME280;62475;52.192;5.396;2022-08-16T04:45:26;100700.38;;;18.32;88.34
74125;BME280;62475;52.192;5.396;2022-08-16T04:47:52;100709.91;;;18.31;88.96
74125;BME280;62475;52.192;5.396;2022-08-16T04:50:21;100705.00;;;18.28;88.17
74125;BME280;62475;52.192;5.396;2022-08-16T04:52:48;100717.19;;;18.24;88.51
74125;BME280;62475;52.192;5.396;2022-08-16T04:55:22;100725.31;;;18.41;86.98
74125;BME280;62475;52.192;5.396;2022-08-16T04:57:51;100723.09;;;18.34;87.87
74125;BME280;62475;52.192;5.396;2022-08-16T05:00:21;100708.63;;;18.41;88.20
74125;BME280;62475;52.192;5.396;2022-08-16T05:02:49;100719.97;;;18.48;87.42
74125;BME280;62475;52.192;5.396;2022-08-16T05:05:15;100723.94;;;18.47;88.18
74125;BME280;62475;52.192;5.396;2022-08-16T05:07:40;100731.00;;;18.44;87.70
74125;BME280;62475;52.192;5.396;2022-08-16T05:10:07;100685.78;;;18.23;86.71
74125;BME280;62475;52.192;5.396;2022-08-16T05:12:33;100719.38;;;18.54;87.45
74125;BME280;62475;52.192;5.396;2022-08-16T05:14:59;100713.47;;;18.56;87.65
74125;BME280;62475;52.192;5.396;2022-08-16T05:17:24;100722.63;;;18.68;86.79
74125;BME280;62475;52.192;5.396;2022-08-16T05:19:50;100729.47;;;18.71;86.60
74125;BME280;62475;52.192;5.396;2022-08-16T05:22:15;100701.63;;;18.71;85.87
74125;BME280;62475;52.192;5.396;2022-08-16T05:24:41;100712.38;;;18.84;85.77
74125;BME280;62475;52.192;5.396;2022-08-16T05:27:06;100727.19;;;19.00;85.25
74125;BME280;62475;52.192;5.396;2022-08-16T05:29:31;100717.75;;;19.05;85.02
74125;BME280;62475;52.192;5.396;2022-08-16T05:31:57;100716.88;;;19.16;85.22
74125;BME280;62475;52.192;5.396;2022-08-16T05:34:22;100727.31;;;19.32;84.45
74125;BME280;62475;52.192;5.396;2022-08-16T05:36:49;100713.94;;;19.37;84.82
74125;BME280;62475;52.192;5.396;2022-08-16T05:39:16;100710.34;;;19.37;83.65
74125;BME280;62475;52.192;5.396;2022-08-16T05:41:41;100725.13;;;19.53;83.14
74125;BME280;62475;52.192;5.396;2022-08-16T05:44:06;100725.84;;;19.65;84.01
74125;BME280;62475;52.192;5.396;2022-08-16T05:46:32;100731.41;;;19.50;83.02
74125;BME280;62475;52.192;5.396;2022-08-16T05:49:00;100744.97;;;19.51;82.43
74125;BME280;62475;52.192;5.396;2022-08-16T05:51:26;100737.22;;;19.45;82.82
74125;BME280;62475;52.192;5.396;2022-08-16T05:53:51;100739.22;;;19.44;83.43
74125;BME280;62475;52.192;5.396;2022-08-16T05:56:16;100739.91;;;19.41;83.18
74125;BME280;62475;52.192;5.396;2022-08-16T05:58:42;100736.13;;;19.34;82.86
74125;BME280;62475;52.192;5.396;2022-08-16T06:01:07;100726.00;;;19.29;83.63
74125;BME280;62475;52.192;5.396;2022-08-16T06:03:32;100737.47;;;19.40;83.45
74125;BME280;62475;52.192;5.396;2022-08-16T06:05:58;100747.91;;;19.43;84.47
74125;BME280;62475;52.192;5.396;2022-08-16T06:08:23;100746.25;;;19.54;84.20
74125;BME280;62475;52.192;5.396;2022-08-16T06:10:49;100735.41;;;19.80;82.85
74125;BME280;62475;52.192;5.396;2022-08-16T06:13:14;100709.69;;;19.86;81.36
74125;BME280;62475;52.192;5.396;2022-08-16T06:15:39;100740.44;;;20.05;81.58
74125;BME280;62475;52.192;5.396;2022-08-16T06:18:04;100746.78;;;20.33;80.78
74125;BME280;62475;52.192;5.396;2022-08-16T06:20:30;100745.25;;;20.36;80.44
74125;BME280;62475;52.192;5.396;2022-08-16T06:22:56;100758.00;;;20.53;79.41
74125;BME280;62475;52.192;5.396;2022-08-16T06:25:22;100750.16;;;20.58;78.76
74125;BME280;62475;52.192;5.396;2022-08-16T06:27:48;100739.81;;;20.59;79.23
74125;BME280;62475;52.192;5.396;2022-08-16T06:30:13;100743.44;;;20.78;78.04
74125;BME280;62475;52.192;5.396;2022-08-16T06:32:39;100748.69;;;20.64;78.21
74125;BME280;62475;52.192;5.396;2022-08-16T06:35:04;100751.03;;;20.78;77.30
74125;BME280;62475;52.192;5.396;2022-08-16T06:37:30;100751.72;;;21.09;77.79
74125;BME280;62475;52.192;5.396;2022-08-16T06:39:55;100743.59;;;21.20;76.70
74125;BME280;62475;52.192;5.396;2022-08-16T06:42:21;100756.91;;;21.26;77.51
74125;BME280;62475;52.192;5.396;2022-08-16T06:44:46;100759.22;;;21.82;75.33
74125;BME280;62475;52.192;5.396;2022-08-16T06:47:12;100753.66;;;22.04;72.94
74125;BME280;62475;52.192;5.396;2022-08-16T06:49:38;100755.25;;;21.83;72.73
74125;BME280;62475;52.192;5.396;2022-08-16T06:52:04;100744.91;;;21.45;74.11
74125;BME280;62475;52.192;5.396;2022-08-16T06:54:29;100747.59;;;21.80;72.87
74125;BME280;62475;52.192;5.396;2022-08-16T06:56:54;100743.28;;;22.05;71.60
74125;BME280;62475;52.192;5.396;2022-08-16T06:59:20;100736.44;;;22.02;70.97
74125;BME280;62475;52.192;5.396;2022-08-16T07:01:45;100753.38;;;21.49;73.34
74125;BME280;62475;52.192;5.396;2022-08-16T07:04:11;100756.16;;;21.49;72.91
74125;BME280;62475;52.192;5.396;2022-08-16T07:06:36;100759.03;;;21.33;72.47
74125;BME280;62475;52.192;5.396;2022-08-16T07:09:01;100753.78;;;21.70;72.63
74125;BME280;62475;52.192;5.396;2022-08-16T07:11:27;100761.88;;;21.75;71.49
74125;BME280;62475;52.192;5.396;2022-08-16T07:13:52;100761.78;;;22.13;70.09
74125;BME280;62475;52.192;5.396;2022-08-16T07:16:18;100758.78;;;21.80;70.94
74125;BME280;62475;52.192;5.396;2022-08-16T07:18:46;100779.38;;;21.91;71.51
74125;BME280;62475;52.192;5.396;2022-08-16T07:21:13;100769.69;;;22.30;71.97
74125;BME280;62475;52.192;5.396;2022-08-16T07:23:40;100777.88;;;22.42;70.84
74125;BME280;62475;52.192;5.396;2022-08-16T07:26:08;100782.72;;;22.68;69.60
74125;BME280;62475;52.192;5.396;2022-08-16T07:28:34;100779.63;;;22.76;67.88
74125;BME280;62475;52.192;5.396;2022-08-16T07:30:59;100781.22;;;22.51;66.14
74125;BME280;62475;52.192;5.396;2022-08-16T07:33:27;100777.28;;;22.78;64.82
74125;BME280;62475;52.192;5.396;2022-08-16T07:35:53;100779.16;;;22.97;66.72
74125;BME280;62475;52.192;5.396;2022-08-16T07:38:18;100776.09;;;23.35;65.79
74125;BME280;62475;52.192;5.396;2022-08-16T07:40:43;100778.47;;;22.77;65.56
74125;BME280;62475;52.192;5.396;2022-08-16T07:43:09;100787.63;;;23.00;65.04
74125;BME280;62475;52.192;5.396;2022-08-16T07:45:34;100788.19;;;22.87;64.13
74125;BME280;62475;52.192;5.396;2022-08-16T07:47:59;100771.13;;;23.25;63.53
74125;BME280;62475;52.192;5.396;2022-08-16T07:50:25;100789.84;;;23.43;63.57
74125;BME280;62475;52.192;5.396;2022-08-16T07:52:51;100792.38;;;23.55;62.89
74125;BME280;62475;52.192;5.396;2022-08-16T07:55:16;100786.84;;;23.63;62.57
74125;BME280;62475;52.192;5.396;2022-08-16T07:57:42;100800.84;;;23.59;61.10
74125;BME280;62475;52.192;5.396;2022-08-16T08:00:09;100789.50;;;23.48;61.20
74125;BME280;62475;52.192;5.396;2022-08-16T08:02:35;100777.75;;;23.73;61.38
74125;BME280;62475;52.192;5.396;2022-08-16T08:05:00;100798.16;;;23.70;61.07
74125;BME280;62475;52.192;5.396;2022-08-16T08:07:26;100812.03;;;23.92;61.28
74125;BME280;62475;52.192;5.396;2022-08-16T08:09:52;100811.84;;;24.08;61.34
74125;BME280;62475;52.192;5.396;2022-08-16T08:12:17;100813.28;;;23.61;60.16
74125;BME280;62475;52.192;5.396;2022-08-16T08:14:45;100813.94;;;23.85;60.83
74125;BME280;62475;52.192;5.396;2022-08-16T08:17:10;100812.28;;;24.13;59.41
74125;BME280;62475;52.192;5.396;2022-08-16T08:19:36;100817.25;;;24.27;59.42
74125;BME280;62475;52.192;5.396;2022-08-16T08:22:03;100806.59;;;24.50;60.09
74125;BME280;62475;52.192;5.396;2022-08-16T08:24:28;100811.59;;;24.23;58.62
74125;BME280;62475;52.192;5.396;2022-08-16T08:27:02;100815.06;;;24.10;59.00
74125;BME280;62475;52.192;5.396;2022-08-16T08:29:28;100804.56;;;24.03;59.00
74125;BME280;62475;52.192;5.396;2022-08-16T08:31:54;100814.25;;;24.53;58.71
74125;BME280;62475;52.192;5.396;2022-08-16T08:34:19;100807.69;;;24.38;57.87
74125;BME280;62475;52.192;5.396;2022-08-16T08:36:45;100807.91;;;24.63;59.11
74125;BME280;62475;52.192;5.396;2022-08-16T08:39:13;100824.69;;;24.52;56.48
74125;BME280;62475;52.192;5.396;2022-08-16T08:41:40;100827.59;;;24.63;57.29
74125;BME280;62475;52.192;5.396;2022-08-16T08:44:06;100819.59;;;24.68;57.77
74125;BME280;62475;52.192;5.396;2022-08-16T08:46:31;100839.97;;;25.09;56.26
74125;BME280;62475;52.192;5.396;2022-08-16T08:48:57;100840.69;;;24.96;56.05
74125;BME280;62475;52.192;5.396;2022-08-16T08:51:22;100840.19;;;24.83;57.48
74125;BME280;62475;52.192;5.396;2022-08-16T08:53:49;100821.03;;;24.99;55.22
74125;BME280;62475;52.192;5.396;2022-08-16T08:56:15;100832.72;;;25.01;56.88
74125;BME280;62475;52.192;5.396;2022-08-16T08:58:40;100833.19;;;25.14;56.78
74125;BME280;62475;52.192;5.396;2022-08-16T09:01:06;100833.13;;;25.03;58.52
74125;BME280;62475;52.192;5.396;2022-08-16T09:03:33;100823.94;;;25.13;56.52
74125;BME280;62475;52.192;5.396;2022-08-16T09:06:00;100827.69;;;25.31;56.24
74125;BME280;62475;52.192;5.396;2022-08-16T09:08:25;100835.88;;;25.54;55.00
74125;BME280;62475;52.192;5.396;2022-08-16T09:10:52;100813.88;;;25.05;57.21
74125;BME280;62475;52.192;5.396;2022-08-16T09:13:19;100833.47;;;25.63;56.28
74125;BME280;62475;52.192;5.396;2022-08-16T09:15:45;100837.06;;;25.56;54.33
74125;BME280;62475;52.192;5.396;2022-08-16T09:18:13;100837.63;;;25.94;54.72
74125;BME280;62475;52.192;5.396;2022-08-16T09:20:38;100844.81;;;25.84;55.97
74125;BME280;62475;52.192;5.396;2022-08-16T09:23:04;100846.66;;;25.41;55.41
74125;BME280;62475;52.192;5.396;2022-08-16T09:25:29;100855.13;;;25.48;55.31
74125;BME280;62475;52.192;5.396;2022-08-16T09:27:54;100856.31;;;25.47;56.39
74125;BME280;62475;52.192;5.396;2022-08-16T09:30:20;100860.75;;;25.52;55.43
74125;BME280;62475;52.192;5.396;2022-08-16T09:32:46;100841.88;;;25.59;55.94
74125;BME280;62475;52.192;5.396;2022-08-16T09:35:11;100848.03;;;25.83;53.64
74125;BME280;62475;52.192;5.396;2022-08-16T09:37:39;100853.28;;;25.95;55.27
74125;BME280;62475;52.192;5.396;2022-08-16T09:40:07;100832.47;;;26.34;54.93
74125;BME280;62475;52.192;5.396;2022-08-16T09:42:33;100852.19;;;26.27;52.97
74125;BME280;62475;52.192;5.396;2022-08-16T09:44:58;100849.38;;;26.31;53.00
74125;BME280;62475;52.192;5.396;2022-08-16T09:47:24;100854.22;;;26.30;54.08
74125;BME280;62475;52.192;5.396;2022-08-16T09:49:49;100853.00;;;26.31;53.29
74125;BME280;62475;52.192;5.396;2022-08-16T09:52:14;100863.88;;;26.33;52.07
74125;BME280;62475;52.192;5.396;2022-08-16T09:54:40;100855.44;;;26.50;52.67
74125;BME280;62475;52.192;5.396;2022-08-16T09:57:05;100861.47;;;26.31;52.47
74125;BME280;62475;52.192;5.396;2022-08-16T09:59:32;100865.91;;;26.64;52.52
74125;BME280;62475;52.192;5.396;2022-08-16T10:01:57;100865.94;;;26.74;52.49
74125;BME280;62475;52.192;5.396;2022-08-16T10:04:23;100867.53;;;27.11;50.95
74125;BME280;62475;52.192;5.396;2022-08-16T10:06:54;100872.00;;;26.83;50.85
74125;BME280;62475;52.192;5.396;2022-08-16T10:09:21;100871.53;;;27.27;50.19
74125;BME280;62475;52.192;5.396;2022-08-16T10:11:47;100876.38;;;27.34;50.30
74125;BME280;62475;52.192;5.396;2022-08-16T10:14:31;100877.22;;;27.17;51.90
74125;BME280;62475;52.192;5.396;2022-08-16T10:16:58;100857.00;;;27.46;49.46
74125;BME280;62475;52.192;5.396;2022-08-16T10:19:24;100866.69;;;27.45;50.89
74125;BME280;62475;52.192;5.396;2022-08-16T10:21:49;100857.84;;;27.43;50.57
74125;BME280;62475;52.192;5.396;2022-08-16T10:24:15;100869.53;;;27.38;51.43
74125;BME280;62475;52.192;5.396;2022-08-16T10:26:40;100870.66;;;27.69;51.69
74125;BME280;62475;52.192;5.396;2022-08-16T10:29:05;100865.84;;;27.62;50.57
74125;BME280;62475;52.192;5.396;2022-08-16T10:31:32;100864.53;;;27.91;50.38
74125;BME280;62475;52.192;5.396;2022-08-16T10:33:57;100867.38;;;27.81;51.35
74125;BME280;62475;52.192;5.396;2022-08-16T10:36:22;100865.81;;;27.69;50.43
74125;BME280;62475;52.192;5.396;2022-08-16T10:38:48;100858.59;;;27.54;49.69
74125;BME280;62475;52.192;5.396;2022-08-16T10:41:13;100849.78;;;27.42;50.51
74125;BME280;62475;52.192;5.396;2022-08-16T10:43:40;100869.88;;;27.58;51.00
74125;BME280;62475;52.192;5.396;2022-08-16T10:46:09;100867.75;;;27.86;49.30
74125;BME280;62475;52.192;5.396;2022-08-16T10:48:42;100866.13;;;27.82;49.75
74125;BME280;62475;52.192;5.396;2022-08-16T10:51:08;100853.72;;;27.69;50.30
74125;BME280;62475;52.192;5.396;2022-08-16T10:53:34;100874.22;;;27.83;50.80
74125;BME280;62475;52.192;5.396;2022-08-16T10:56:03;100871.78;;;27.85;48.46
74125;BME280;62475;52.192;5.396;2022-08-16T10:58:30;100873.00;;;27.91;49.20
74125;BME280;62475;52.192;5.396;2022-08-16T11:00:55;100873.94;;;27.53;51.13
74125;BME280;62475;52.192;5.396;2022-08-16T11:03:20;100875.78;;;27.99;49.96
74125;BME280;62475;52.192;5.396;2022-08-16T11:05:46;100872.63;;;27.72;51.61
74125;BME280;62475;52.192;5.396;2022-08-16T11:08:11;100879.97;;;27.52;51.59
74125;BME280;62475;52.192;5.396;2022-08-16T11:10:43;100882.84;;;27.41;52.11
74125;BME280;62475;52.192;5.396;2022-08-16T11:13:12;100888.44;;;27.55;51.77
74125;BME280;62475;52.192;5.396;2022-08-16T11:15:38;100896.13;;;27.48;52.14
74125;BME280;62475;52.192;5.396;2022-08-16T11:18:05;100903.81;;;27.16;52.47
74125;BME280;62475;52.192;5.396;2022-08-16T11:20:31;100876.03;;;26.86;52.22
74125;BME280;62475;52.192;5.396;2022-08-16T11:22:57;100897.38;;;27.01;52.23
74125;BME280;62475;52.192;5.396;2022-08-16T11:25:25;100902.19;;;26.86;53.05
74125;BME280;62475;52.192;5.396;2022-08-16T11:27:51;100897.75;;;26.68;53.66
74125;BME280;62475;52.192;5.396;2022-08-16T11:30:17;100915.09;;;27.12;54.26
74125;BME280;62475;52.192;5.396;2022-08-16T11:32:44;100902.56;;;27.52;52.74
74125;BME280;62475;52.192;5.396;2022-08-16T11:35:13;100912.53;;;27.91;52.13
74125;BME280;62475;52.192;5.396;2022-08-16T11:37:40;100917.28;;;28.12;51.24
74125;BME280;62475;52.192;5.396;2022-08-16T11:40:08;100917.97;;;28.34;51.11
74125;BME280;62475;52.192;5.396;2022-08-16T11:42:33;100903.81;;;28.41;49.77
74125;BME280;62475;52.192;5.396;2022-08-16T11:44:59;100916.25;;;28.50;51.06
74125;BME280;62475;52.192;5.396;2022-08-16T11:47:24;100914.88;;;28.07;52.12
74125;BME280;62475;52.192;5.396;2022-08-16T11:49:49;100899.28;;;27.71;53.20
74125;BME280;62475;52.192;5.396;2022-08-16T11:52:15;100919.91;;;28.47;52.45
74125;BME280;62475;52.192;5.396;2022-08-16T11:54:42;100927.63;;;28.40;51.35
74125;BME280;62475;52.192;5.396;2022-08-16T11:57:08;100928.38;;;30.24;48.31
74125;BME280;62475;52.192;5.396;2022-08-16T11:59:33;100930.34;;;29.56;50.46
74125;BME280;62475;52.192;5.396;2022-08-16T12:01:58;100907.41;;;29.03;49.95
74125;BME280;62475;52.192;5.396;2022-08-16T12:04:24;100912.03;;;29.64;50.31
74125;BME280;62475;52.192;5.396;2022-08-16T12:06:50;100924.22;;;29.61;49.14
74125;BME280;62475;52.192;5.396;2022-08-16T12:09:15;100921.94;;;29.49;48.75
74125;BME280;62475;52.192;5.396;2022-08-16T12:11:41;100927.06;;;29.24;49.30
74125;BME280;62475;52.192;5.396;2022-08-16T12:14:06;100927.75;;;29.32;47.96
74125;BME280;62475;52.192;5.396;2022-08-16T12:16:34;100920.72;;;29.06;48.40
74125;BME280;62475;52.192;5.396;2022-08-16T12:19:03;100923.06;;;29.59;47.87
74125;BME280;62475;52.192;5.396;2022-08-16T12:21:28;100919.16;;;28.98;48.67
74125;BME280;62475;52.192;5.396;2022-08-16T12:23:54;100917.38;;;27.80;50.75
74125;BME280;62475;52.192;5.396;2022-08-16T12:26:22;100922.28;;;27.69;52.18
74125;BME280;62475;52.192;5.396;2022-08-16T12:28:47;100928.72;;;27.66;52.83
74125;BME280;62475;52.192;5.396;2022-08-16T12:31:14;100933.19;;;27.53;53.43
74125;BME280;62475;52.192;5.396;2022-08-16T12:33:39;100934.81;;;27.37;52.84
74125;BME280;62475;52.192;5.396;2022-08-16T12:36:08;100931.22;;;27.43;53.09
74125;BME280;62475;52.192;5.396;2022-08-16T12:38:33;100924.75;;;27.18;54.11
74125;BME280;62475;52.192;5.396;2022-08-16T12:40:58;100934.41;;;27.49;52.71
74125;BME280;62475;52.192;5.396;2022-08-16T12:43:25;100938.06;;;27.35;53.12
74125;BME280;62475;52.192;5.396;2022-08-16T12:45:53;100941.69;;;27.39;53.97